Time;durP1;ratioP1;P1;durP2;ratioP2;P2;SDS_P1;SDS_P2;PMS_P1;PMS_P2;Temp;Humidity;BMP_temperature;BMP_pressure;BME280_temperature;BME280_humidity;BME280_pressure;Samples;Min_cycle;Max_cycle;Signal;HPM_P1;HPM_P2
2023/12/23 00:02:06;;;;;;;1.55;0.60;;;;;;;;;;10418309;28;20045;-75
2023/12/23 00:07:12;;;;;;;2.83;0.50;;;;;;;;;;10401457;28;20072;-75
2023/12/23 00:12:17;;;;;;;2.17;0.57;;;;;;;;;;10387240;28;20057;-75
2023/12/23 00:17:20;;;;;;;3.22;0.73;;;;;;;;;;10394486;28;20128;-74
2023/12/23 00:22:23;;;;;;;3.17;0.52;;;;;;;;;;10395742;28;20045;-74
2023/12/23 00:27:28;;;;;;;1.80;0.70;;;;;;;;;;10394850;28;20045;-75
2023/12/23 00:32:31;;;;;;;1.85;0.63;;;;;;;;;;10376775;28;20046;-74
2023/12/23 00:37:34;;;;;;;4.22;0.90;;;;;;;;;;10383597;28;20062;-74
2023/12/23 00:42:39;;;;;;;1.55;0.68;;;;;;;;;;10373811;28;20446;-75
2023/12/23 00:47:42;;;;;;;2.15;0.73;;;;;;;;;;10378527;28;20132;-74
2023/12/23 00:52:45;;;;;;;2.38;0.60;;;;;;;;;;10388736;28;20409;-74
2023/12/23 00:57:50;;;;;;;3.28;0.82;;;;;;;;;;10429508;28;20125;-74
2023/12/23 01:02:54;;;;;;;3.55;0.90;;;;;;;;;;10402926;28;20045;-75
2023/12/23 01:07:58;;;;;;;3.50;0.90;;;;;;;;;;10410640;28;20076;-75
2023/12/23 01:13:02;;;;;;;2.45;0.90;;;;;;;;;;10398144;28;20053;-74
2023/12/23 01:18:06;;;;;;;2.85;0.80;;;;;;;;;;10396339;28;20045;-74
2023/12/23 01:23:10;;;;;;;1.30;0.68;;;;;;;;;;10429258;28;20084;-74
2023/12/23 01:28:14;;;;;;;2.75;1.08;;;;;;;;;;10404989;28;20104;-74
2023/12/23 01:33:17;;;;;;;3.13;1.55;;;;;;;;;;10403204;28;20047;-74
2023/12/23 01:38:21;;;;;;;4.82;1.45;;;;;;;;;;10379838;28;20924;-75
2023/12/23 01:43:26;;;;;;;4.05;1.98;;;;;;;;;;10406192;28;20041;-74
2023/12/23 01:48:31;;;;;;;3.47;1.30;;;;;;;;;;10425551;28;20053;-75
2023/12/23 01:53:35;;;;;;;3.00;1.10;;;;;;;;;;10385999;28;20459;-75
2023/12/23 01:58:40;;;;;;;1.13;0.80;;;;;;;;;;10389960;28;20045;-74
2023/12/23 02:03:43;;;;;;;2.10;0.70;;;;;;;;;;10420164;28;20456;-74
2023/12/23 02:08:46;;;;;;;1.00;0.60;;;;;;;;;;10426716;28;20038;-74
2023/12/23 02:13:59;;;;;;;0.90;0.50;;;;;;;;;;10388465;28;20125;-74
2023/12/23 02:19:03;;;;;;;0.85;0.50;;;;;;;;;;10403785;28;20049;-74
2023/12/23 02:24:07;;;;;;;0.70;0.50;;;;;;;;;;10397014;28;20103;-74
2023/12/23 02:29:12;;;;;;;0.40;0.30;;;;;;;;;;10418263;28;20120;-74
2023/12/23 02:34:16;;;;;;;0.43;0.40;;;;;;;;;;10422032;28;20638;-74
2023/12/23 02:39:20;;;;;;;1.17;0.88;;;;;;;;;;10423937;28;20045;-74
2023/12/23 02:44:24;;;;;;;0.73;0.60;;;;;;;;;;10393854;28;20710;-73
2023/12/23 02:49:27;;;;;;;0.60;0.50;;;;;;;;;;10398729;28;20049;-74
2023/12/23 02:54:32;;;;;;;1.38;0.45;;;;;;;;;;10379935;28;20045;-74
2023/12/23 02:59:35;;;;;;;1.40;0.70;;;;;;;;;;10380143;28;20038;-74
2023/12/23 03:04:39;;;;;;;2.70;0.70;;;;;;;;;;10389318;28;20049;-74
2023/12/23 03:09:44;;;;;;;3.45;0.93;;;;;;;;;;10423602;28;20062;-74
2023/12/23 03:14:47;;;;;;;2.08;1.08;;;;;;;;;;10435014;28;20041;-74
2023/12/23 03:19:53;;;;;;;3.15;1.00;;;;;;;;;;10436055;28;20052;-74
2023/12/23 03:24:57;;;;;;;3.53;1.25;;;;;;;;;;10439767;28;20510;-74
2023/12/23 03:30:01;;;;;;;3.35;1.30;;;;;;;;;;10423182;28;20041;-74
2023/12/23 03:35:05;;;;;;;2.40;1.33;;;;;;;;;;10422927;28;20040;-74
2023/12/23 03:40:12;;;;;;;2.77;1.20;;;;;;;;;;10431927;28;20529;-74
2023/12/23 03:45:16;;;;;;;4.10;1.20;;;;;;;;;;10423051;28;20283;-74
2023/12/23 03:50:20;;;;;;;4.85;1.30;;;;;;;;;;10380145;28;20560;-74
2023/12/23 03:55:29;;;;;;;4.38;1.50;;;;;;;;;;10428673;28;20049;-74
2023/12/23 04:00:32;;;;;;;2.63;1.08;;;;;;;;;;10400227;28;20637;-74
2023/12/23 04:05:35;;;;;;;4.10;1.33;;;;;;;;;;10369788;28;20049;-74
2023/12/23 04:10:40;;;;;;;5.05;1.65;;;;;;;;;;10401102;28;20045;-74
2023/12/23 04:15:43;;;;;;;2.97;1.10;;;;;;;;;;10389669;28;20047;-74
2023/12/23 04:20:46;;;;;;;4.00;1.52;;;;;;;;;;10380423;28;20095;-74
2023/12/23 04:25:51;;;;;;;3.80;1.20;;;;;;;;;;10374452;28;20056;-74
2023/12/23 04:30:56;;;;;;;4.25;1.30;;;;;;;;;;10381494;28;20131;-74
2023/12/23 04:36:00;;;;;;;4.80;1.33;;;;;;;;;;10424804;28;20111;-74
2023/12/23 04:41:05;;;;;;;7.82;1.90;;;;;;;;;;10454737;28;20754;-74
2023/12/23 04:46:11;;;;;;;5.65;1.58;;;;;;;;;;10463038;28;20082;-74
2023/12/23 04:51:15;;;;;;;3.42;1.70;;;;;;;;;;10468165;28;20064;-75
2023/12/23 04:56:19;;;;;;;3.15;1.30;;;;;;;;;;10464503;28;20044;-74
2023/12/23 05:01:24;;;;;;;3.50;1.20;;;;;;;;;;10477740;28;20103;-74
2023/12/23 05:06:27;;;;;;;6.15;1.75;;;;;;;;;;10480657;28;20135;-74
2023/12/23 05:11:32;;;;;;;2.95;0.77;;;;;;;;;;10453031;28;20040;-74
2023/12/23 05:16:35;;;;;;;2.85;0.88;;;;;;;;;;10458994;28;20078;-74
2023/12/23 05:21:38;;;;;;;3.28;0.98;;;;;;;;;;10480255;28;20501;-74
2023/12/23 05:26:43;;;;;;;3.80;0.90;;;;;;;;;;10472883;28;20040;-74
2023/12/23 05:31:46;;;;;;;3.92;0.88;;;;;;;;;;10460665;28;20049;-74
2023/12/23 05:36:49;;;;;;;5.78;0.90;;;;;;;;;;10485595;28;20059;-74
2023/12/23 05:41:54;;;;;;;2.08;0.73;;;;;;;;;;10478664;28;20055;-74
2023/12/23 05:46:57;;;;;;;2.17;0.80;;;;;;;;;;10485519;28;20044;-75
2023/12/23 05:52:00;;;;;;;2.72;0.88;;;;;;;;;;10479126;28;20052;-74
2023/12/23 05:57:06;;;;;;;3.78;1.20;;;;;;;;;;10472141;23;20050;-76
2023/12/23 06:02:09;;;;;;;4.95;1.02;;;;;;;;;;10403896;28;20525;-76
2023/12/23 06:07:13;;;;;;;3.72;0.77;;;;;;;;;;10386362;28;20073;-76
2023/12/23 06:12:18;;;;;;;4.18;1.08;;;;;;;;;;10348350;28;20524;-76
2023/12/23 06:17:21;;;;;;;2.75;0.77;;;;;;;;;;10332917;28;20046;-76
2023/12/23 06:22:24;;;;;;;3.05;0.80;;;;;;;;;;10369436;28;20049;-76
2023/12/23 06:27:29;;;;;;;1.60;0.60;;;;;;;;;;10367011;28;20042;-76
2023/12/23 06:32:32;;;;;;;1.75;1.02;;;;;;;;;;10365747;28;20041;-77
2023/12/23 06:37:36;;;;;;;5.50;1.23;;;;;;;;;;10365516;28;20042;-76
2023/12/23 06:42:40;;;;;;;3.25;0.70;;;;;;;;;;10387061;28;20049;-76
2023/12/23 06:47:43;;;;;;;3.70;0.70;;;;;;;;;;10366285;28;20554;-76
2023/12/23 06:52:47;;;;;;;3.90;1.02;;;;;;;;;;10365546;28;20048;-76
2023/12/23 06:57:53;;;;;;;1.50;0.73;;;;;;;;;;10372534;28;20088;-76
2023/12/23 07:02:56;;;;;;;3.60;0.85;;;;;;;;;;10394804;28;20466;-76
2023/12/23 07:07:59;;;;;;;7.95;1.30;;;;;;;;;;10395763;28;20056;-76
2023/12/23 07:13:04;;;;;;;4.93;1.13;;;;;;;;;;10364314;28;20050;-76
2023/12/23 07:18:09;;;;;;;3.13;0.88;;;;;;;;;;10364604;28;20479;-76
2023/12/23 07:23:13;;;;;;;3.63;1.08;;;;;;;;;;10363937;28;20049;-76
2023/12/23 07:28:17;;;;;;;3.03;1.02;;;;;;;;;;10363155;28;20047;-76
2023/12/23 07:33:21;;;;;;;1.67;0.55;;;;;;;;;;10361347;28;20045;-76
2023/12/23 07:38:25;;;;;;;4.57;0.90;;;;;;;;;;10352819;28;20037;-77
2023/12/23 07:43:29;;;;;;;4.40;0.80;;;;;;;;;;10345657;28;20128;-77
2023/12/23 07:48:33;;;;;;;4.40;1.00;;;;;;;;;;10368644;28;20687;-76
2023/12/23 07:53:36;;;;;;;1.13;0.65;;;;;;;;;;10365148;28;20046;-76
2023/12/23 07:58:40;;;;;;;1.63;0.82;;;;;;;;;;10379395;28;20068;-76
2023/12/23 08:03:44;;;;;;;3.30;1.35;;;;;;;;;;10370814;28;20053;-77
2023/12/23 08:08:47;;;;;;;4.50;0.90;;;;;;;;;;10360639;28;20073;-76
2023/12/23 08:13:51;;;;;;;1.90;0.70;;;;;;;;;;10366440;28;20058;-77
2023/12/23 08:18:55;;;;;;;1.88;0.90;;;;;;;;;;10366068;28;20057;-76
2023/12/23 08:24:01;;;;;;;3.90;0.90;;;;;;;;;;10364196;28;20410;-76
2023/12/23 08:29:06;;;;;;;1.33;0.95;;;;;;;;;;10364057;28;20050;-76
2023/12/23 08:34:09;;;;;;;2.25;0.88;;;;;;;;;;10364070;28;20044;-76
2023/12/23 08:39:13;;;;;;;1.55;0.55;;;;;;;;;;10392070;28;20045;-76
2023/12/23 08:44:21;;;;;;;1.63;0.70;;;;;;;;;;10391443;28;20063;-76
2023/12/23 08:49:24;;;;;;;0.88;0.55;;;;;;;;;;10361862;28;20054;-76
2023/12/23 08:54:27;;;;;;;1.65;1.08;;;;;;;;;;10357096;28;20084;-76
2023/12/23 08:59:32;;;;;;;2.88;1.55;;;;;;;;;;10362705;28;20042;-76
2023/12/23 09:04:35;;;;;;;3.58;1.70;;;;;;;;;;10363081;28;20065;-76
2023/12/23 09:09:41;;;;;;;2.83;1.13;;;;;;;;;;10363290;28;20049;-76
2023/12/23 09:14:45;;;;;;;1.23;0.70;;;;;;;;;;10363735;28;20043;-77
2023/12/23 09:19:48;;;;;;;0.80;0.50;;;;;;;;;;10362739;28;20713;-76
2023/12/23 09:24:52;;;;;;;2.03;0.70;;;;;;;;;;10363222;28;20056;-76
2023/12/23 09:29:58;;;;;;;0.90;0.60;;;;;;;;;;10367043;28;20053;-76
2023/12/23 09:35:01;;;;;;;0.63;0.43;;;;;;;;;;10391405;28;20050;-77
2023/12/23 09:40:07;;;;;;;0.98;0.40;;;;;;;;;;10388521;28;20088;-76
2023/12/23 09:45:15;;;;;;;1.38;0.57;;;;;;;;;;10370790;28;20400;-76
2023/12/23 09:50:18;;;;;;;2.40;0.60;;;;;;;;;;10362539;28;20061;-76
2023/12/23 09:55:21;;;;;;;2.22;0.30;;;;;;;;;;10362225;28;20347;-76
2023/12/23 10:00:26;;;;;;;0.40;0.40;;;;;;;;;;10354574;28;20042;-76
2023/12/23 10:05:30;;;;;;;1.10;0.60;;;;;;;;;;10357498;28;20054;-73
2023/12/23 10:10:33;;;;;;;1.80;0.60;;;;;;;;;;10367698;28;20041;-74
2023/12/23 10:15:40;;;;;;;0.82;0.40;;;;;;;;;;10364255;28;20507;-74
2023/12/23 10:20:44;;;;;;;1.90;0.30;;;;;;;;;;10367470;28;20514;-73
2023/12/23 10:25:47;;;;;;;0.57;0.40;;;;;;;;;;10361664;28;20041;-73
2023/12/23 10:30:54;;;;;;;4.57;0.60;;;;;;;;;;10352113;28;20049;-74
2023/12/23 10:35:59;;;;;;;0.50;0.43;;;;;;;;;;10380716;28;20057;-74
2023/12/23 10:41:12;;;;;;;0.70;0.70;;;;;;;;;;10369290;28;20121;-74
2023/12/23 10:46:17;;;;;;;1.17;0.70;;;;;;;;;;10373096;28;20065;-73
2023/12/23 10:51:22;;;;;;;2.70;1.67;;;;;;;;;;10389294;28;20048;-74
2023/12/23 10:56:27;;;;;;;2.15;1.38;;;;;;;;;;10368653;28;20050;-74
2023/12/23 11:01:34;;;;;;;1.87;1.20;;;;;;;;;;10380944;28;20449;-74
2023/12/23 11:06:41;;;;;;;1.67;0.90;;;;;;;;;;10369784;28;20046;-74
2023/12/23 11:11:45;;;;;;;5.47;1.20;;;;;;;;;;10361195;28;20058;-74
2023/12/23 11:16:50;;;;;;;2.35;1.30;;;;;;;;;;10369578;28;20042;-74
2023/12/23 11:22:22;;;;;;;2.22;1.23;;;;;;;;;;10368233;28;20151;-74
2023/12/23 11:27:32;;;;;;;2.38;0.70;;;;;;;;;;10357700;28;20048;-74
2023/12/23 11:32:41;;;;;;;2.13;0.68;;;;;;;;;;10356793;28;20529;-74
2023/12/23 11:37:53;;;;;;;4.28;0.80;;;;;;;;;;10368613;28;20111;-73
2023/12/23 11:42:57;;;;;;;2.72;0.90;;;;;;;;;;10378672;28;20073;-74
2023/12/23 11:48:02;;;;;;;4.05;1.42;;;;;;;;;;10366941;28;20520;-74
2023/12/23 11:53:06;;;;;;;1.95;1.10;;;;;;;;;;10370683;28;20065;-74
2023/12/23 11:58:10;;;;;;;3.13;0.98;;;;;;;;;;10397097;23;20045;-74
2023/12/23 12:03:15;;;;;;;4.18;1.23;;;;;;;;;;10404886;28;20067;-74
2023/12/23 12:08:18;;;;;;;3.67;1.10;;;;;;;;;;10404854;28;20060;-74
2023/12/23 12:13:22;;;;;;;1.65;0.93;;;;;;;;;;10397130;28;20136;-74
2023/12/23 12:18:26;;;;;;;1.52;0.60;;;;;;;;;;10405357;28;20051;-74
2023/12/23 12:23:29;;;;;;;2.65;0.80;;;;;;;;;;10413976;28;20072;-74
2023/12/23 12:28:33;;;;;;;4.18;0.80;;;;;;;;;;10383707;28;20053;-74
2023/12/23 12:33:41;;;;;;;3.70;1.10;;;;;;;;;;10395381;28;20050;-74
2023/12/23 12:38:45;;;;;;;4.68;1.05;;;;;;;;;;10404710;28;20058;-74
2023/12/23 12:43:48;;;;;;;3.58;0.80;;;;;;;;;;10395515;28;20144;-74
2023/12/23 12:48:53;;;;;;;3.58;1.00;;;;;;;;;;10404655;28;20585;-73
2023/12/23 12:53:56;;;;;;;3.65;1.10;;;;;;;;;;10396917;28;20393;-74
2023/12/23 12:58:59;;;;;;;2.15;0.90;;;;;;;;;;10393657;28;20048;-74
2023/12/23 13:04:04;;;;;;;3.65;0.98;;;;;;;;;;10387897;28;20133;-74
2023/12/23 13:09:07;;;;;;;2.28;0.95;;;;;;;;;;10382298;28;20033;-74
2023/12/23 13:14:11;;;;;;;1.92;0.85;;;;;;;;;;10393076;28;20048;-73
2023/12/23 13:19:15;;;;;;;1.90;1.13;;;;;;;;;;10389980;28;20033;-74
2023/12/23 13:24:18;;;;;;;2.58;1.00;;;;;;;;;;10402418;28;20532;-74
2023/12/23 13:29:22;;;;;;;2.60;0.85;;;;;;;;;;10400623;28;20030;-74
2023/12/23 13:34:26;;;;;;;2.03;0.80;;;;;;;;;;10392062;28;20514;-73
2023/12/23 13:39:30;;;;;;;1.73;0.77;;;;;;;;;;10400101;28;20577;-73
2023/12/23 13:44:35;;;;;;;2.55;0.93;;;;;;;;;;10393719;28;20045;-73
2023/12/23 13:49:40;;;;;;;1.30;0.90;;;;;;;;;;10404762;28;20128;-74
2023/12/23 13:54:43;;;;;;;4.03;0.98;;;;;;;;;;10393474;28;20606;-74
2023/12/23 13:59:47;;;;;;;2.75;0.90;;;;;;;;;;10401382;28;20697;-74
2023/12/23 14:04:53;;;;;;;6.75;3.15;;;;;;;;;;10403090;28;20111;-74
2023/12/23 14:09:57;;;;;;;1.95;0.77;;;;;;;;;;10394535;28;20092;-73
2023/12/23 14:15:00;;;;;;;1.05;0.90;;;;;;;;;;10402637;28;20514;-73
2023/12/23 14:20:06;;;;;;;2.40;0.80;;;;;;;;;;10397561;28;20045;-74
2023/12/23 14:25:09;;;;;;;1.50;0.80;;;;;;;;;;10398667;28;20129;-73
2023/12/23 14:30:14;;;;;;;1.73;0.80;;;;;;;;;;10399039;28;20033;-73
2023/12/23 14:35:18;;;;;;;3.65;1.38;;;;;;;;;;10397824;28;20495;-73
2023/12/23 14:40:22;;;;;;;2.22;0.70;;;;;;;;;;10400568;28;20042;-73
2023/12/23 14:45:26;;;;;;;2.25;0.90;;;;;;;;;;10399661;28;20052;-74
2023/12/23 14:50:31;;;;;;;2.20;1.00;;;;;;;;;;10398663;28;20132;-73
2023/12/23 14:55:35;;;;;;;2.13;1.00;;;;;;;;;;10400152;28;20148;-73
2023/12/23 15:00:41;;;;;;;3.65;1.10;;;;;;;;;;10387376;28;20041;-73
2023/12/23 15:05:46;;;;;;;2.10;0.95;;;;;;;;;;10396201;28;20061;-74
2023/12/23 15:10:49;;;;;;;1.38;0.90;;;;;;;;;;10398407;28;20041;-73
2023/12/23 15:15:52;;;;;;;1.88;0.90;;;;;;;;;;10401842;28;20137;-73
2023/12/23 15:20:57;;;;;;;5.45;1.85;;;;;;;;;;10403376;28;20057;-73
2023/12/23 15:26:00;;;;;;;4.30;1.70;;;;;;;;;;10399972;28;20052;-73
2023/12/23 15:31:03;;;;;;;2.60;1.00;;;;;;;;;;10391681;28;20052;-74
2023/12/23 15:36:11;;;;;;;3.78;1.63;;;;;;;;;;10390033;28;20049;-73
2023/12/23 15:41:14;;;;;;;3.38;1.40;;;;;;;;;;10397750;28;20379;-73
2023/12/23 15:46:18;;;;;;;4.32;1.38;;;;;;;;;;10385805;28;20529;-73
2023/12/23 15:51:22;;;;;;;2.63;1.20;;;;;;;;;;10378083;28;20057;-73
2023/12/23 15:56:26;;;;;;;1.13;0.77;;;;;;;;;;10408489;28;20050;-73
2023/12/23 16:01:29;;;;;;;4.05;0.93;;;;;;;;;;10394058;28;20048;-73
2023/12/23 16:06:34;;;;;;;2.42;1.10;;;;;;;;;;10381759;28;20132;-73
2023/12/23 16:11:37;;;;;;;2.83;1.40;;;;;;;;;;10405117;28;20080;-73
2023/12/23 16:16:41;;;;;;;3.00;1.35;;;;;;;;;;10411530;28;20073;-73
2023/12/23 16:21:45;;;;;;;2.00;1.33;;;;;;;;;;10395122;28;20050;-74
2023/12/23 16:26:49;;;;;;;4.82;1.50;;;;;;;;;;10384422;28;20060;-73
2023/12/23 16:31:52;;;;;;;2.55;1.48;;;;;;;;;;10399338;28;20037;-73
2023/12/23 16:36:57;;;;;;;4.93;2.60;;;;;;;;;;10395036;28;20049;-73
2023/12/23 16:42:00;;;;;;;3.35;1.50;;;;;;;;;;10402115;28;20053;-74
2023/12/23 16:47:04;;;;;;;1.98;1.00;;;;;;;;;;10390003;28;20030;-73
2023/12/23 16:52:08;;;;;;;2.63;0.88;;;;;;;;;;10397149;28;20519;-73
2023/12/23 16:57:11;;;;;;;4.20;1.30;;;;;;;;;;10389303;28;20037;-73
2023/12/23 17:02:15;;;;;;;2.70;0.82;;;;;;;;;;10400515;28;20395;-74
2023/12/23 17:07:20;;;;;;;3.20;0.90;;;;;;;;;;10389206;28;20570;-73
2023/12/23 17:12:23;;;;;;;2.53;0.70;;;;;;;;;;10389919;28;20037;-73
2023/12/23 17:17:26;;;;;;;2.38;1.00;;;;;;;;;;10394389;28;20061;-73
2023/12/23 17:22:31;;;;;;;2.17;0.93;;;;;;;;;;10399652;28;20036;-74
2023/12/23 17:27:34;;;;;;;2.00;0.80;;;;;;;;;;10400682;28;20037;-73
2023/12/23 17:32:37;;;;;;;4.30;1.77;;;;;;;;;;10398103;28;20041;-73
2023/12/23 17:37:42;;;;;;;3.78;1.50;;;;;;;;;;10401926;28;20054;-74
2023/12/23 17:42:45;;;;;;;5.07;2.45;;;;;;;;;;10391649;28;20055;-73
2023/12/23 17:47:49;;;;;;;4.38;1.88;;;;;;;;;;10395980;28;20124;-73
2023/12/23 17:52:54;;;;;;;4.10;1.90;;;;;;;;;;10395633;28;20040;-74
2023/12/23 17:57:58;;;;;;;5.43;1.40;;;;;;;;;;10394342;28;20759;-73
2023/12/23 18:03:01;;;;;;;1.95;1.20;;;;;;;;;;10414903;23;20053;-75
2023/12/23 18:08:06;;;;;;;3.92;1.40;;;;;;;;;;10389290;28;20045;-75
2023/12/23 18:13:12;;;;;;;4.00;1.27;;;;;;;;;;10404315;28;20058;-76
2023/12/23 18:18:15;;;;;;;;;;;;;;;;;;10406003;28;20044;-75
2023/12/23 18:23:20;;;;;;;3.13;1.05;;;;;;;;;;10382724;28;20012;-75
2023/12/23 18:28:23;;;;;;;1.35;0.77;;;;;;;;;;10404508;28;20713;-75
2023/12/23 18:33:26;;;;;;;2.88;0.98;;;;;;;;;;10403545;28;20045;-75
2023/12/23 18:38:31;;;;;;;1.83;0.85;;;;;;;;;;10393429;28;20648;-75
2023/12/23 18:43:36;;;;;;;2.35;0.90;;;;;;;;;;10403706;28;20050;-75
2023/12/23 18:48:39;;;;;;;2.30;0.82;;;;;;;;;;10386916;28;20041;-75
2023/12/23 18:53:44;;;;;;;2.25;1.63;;;;;;;;;;10390113;28;20037;-75
2023/12/23 18:58:48;;;;;;;1.50;0.60;;;;;;;;;;10399356;28;20169;-75
2023/12/23 19:03:51;;;;;;;1.77;1.02;;;;;;;;;;10381774;28;20041;-75
2023/12/23 19:08:56;;;;;;;1.95;0.95;;;;;;;;;;10405162;28;20054;-75
2023/12/23 19:13:59;;;;;;;1.45;0.70;;;;;;;;;;10402288;28;20045;-75
2023/12/23 19:19:02;;;;;;;2.65;0.60;;;;;;;;;;10406791;28;20051;-75
2023/12/23 19:24:07;;;;;;;1.33;0.68;;;;;;;;;;10406139;28;20506;-75
2023/12/23 19:29:10;;;;;;;3.25;0.73;;;;;;;;;;10404584;28;20302;-75
2023/12/23 19:34:14;;;;;;;1.75;0.60;;;;;;;;;;10402149;28;20042;-75
2023/12/23 19:39:19;;;;;;;2.53;0.95;;;;;;;;;;10403545;28;20041;-75
2023/12/23 19:44:24;;;;;;;2.17;0.70;;;;;;;;;;10392390;28;20044;-75
2023/12/23 19:49:28;;;;;;;2.08;0.80;;;;;;;;;;10404716;28;20128;-75
2023/12/23 19:54:33;;;;;;;1.70;0.85;;;;;;;;;;10402634;28;20049;-75
2023/12/23 19:59:37;;;;;;;1.83;0.93;;;;;;;;;;10402454;28;20573;-75
2023/12/23 20:04:40;;;;;;;3.60;1.08;;;;;;;;;;10399981;28;20044;-75
2023/12/23 20:09:45;;;;;;;1.00;0.70;;;;;;;;;;10400928;28;20042;-75
2023/12/23 20:14:48;;;;;;;1.80;0.88;;;;;;;;;;10403949;28;20072;-75
2023/12/23 20:19:51;;;;;;;1.35;0.80;;;;;;;;;;10399326;28;20049;-75
2023/12/23 20:24:56;;;;;;;1.35;0.65;;;;;;;;;;10403766;28;20442;-75
2023/12/23 20:29:59;;;;;;;2.60;0.80;;;;;;;;;;10404403;28;20047;-75
2023/12/23 20:35:03;;;;;;;3.03;1.60;;;;;;;;;;10403303;28;20140;-75
2023/12/23 20:40:10;;;;;;;1.60;1.00;;;;;;;;;;10401877;28;20087;-75
2023/12/23 20:45:13;;;;;;;2.10;1.23;;;;;;;;;;10399831;28;20040;-75
2023/12/23 20:50:17;;;;;;;0.70;0.70;;;;;;;;;;10384301;28;20032;-75
2023/12/23 20:55:21;;;;;;;1.02;0.50;;;;;;;;;;10399707;28;20037;-74
2023/12/23 21:00:24;;;;;;;1.02;0.55;;;;;;;;;;10400421;28;20049;-74
2023/12/23 21:05:28;;;;;;;0.65;0.50;;;;;;;;;;10399817;28;20402;-74
2023/12/23 21:10:33;;;;;;;0.77;0.57;;;;;;;;;;10399667;28;20099;-74
2023/12/23 21:15:37;;;;;;;;;;;;;;;;;;10400993;28;20695;-74
2023/12/23 21:20:40;;;;;;;1.75;0.93;;;;;;;;;;10402477;28;19925;-74
2023/12/23 21:25:45;;;;;;;1.10;0.65;;;;;;;;;;10401552;28;20037;-74
2023/12/23 21:30:48;;;;;;;1.60;0.88;;;;;;;;;;10401501;28;20045;-74
2023/12/23 21:35:51;;;;;;;1.33;0.70;;;;;;;;;;10400504;28;20396;-74
2023/12/23 21:40:56;;;;;;;1.00;0.75;;;;;;;;;;10399378;28;20050;-74
2023/12/23 21:45:59;;;;;;;4.40;2.20;;;;;;;;;;10400769;28;20128;-74
2023/12/23 21:51:03;;;;;;;2.72;1.38;;;;;;;;;;10384452;28;20029;-74
2023/12/23 21:56:08;;;;;;;2.88;1.17;;;;;;;;;;10401713;28;20041;-74
2023/12/23 22:01:13;;;;;;;3.53;1.60;;;;;;;;;;10401320;28;20099;-74
2023/12/23 22:06:18;;;;;;;2.80;1.10;;;;;;;;;;10405952;28;20048;-74
2023/12/23 22:11:23;;;;;;;2.40;1.13;;;;;;;;;;10390860;28;20050;-74
2023/12/23 22:16:26;;;;;;;2.72;1.15;;;;;;;;;;10407822;28;20752;-74
2023/12/23 22:21:29;;;;;;;1.50;0.70;;;;;;;;;;10407999;28;20046;-74
2023/12/23 22:26:34;;;;;;;2.10;1.00;;;;;;;;;;10404377;28;20050;-74
2023/12/23 22:31:37;;;;;;;1.33;0.60;;;;;;;;;;10406273;28;22207;-74
2023/12/23 22:36:41;;;;;;;1.23;0.50;;;;;;;;;;10408394;28;20408;-74
2023/12/23 22:41:46;;;;;;;1.23;0.60;;;;;;;;;;10398121;28;20507;-74
2023/12/23 22:46:49;;;;;;;1.63;0.65;;;;;;;;;;10407717;28;20148;-74
2023/12/23 22:51:53;;;;;;;1.40;0.47;;;;;;;;;;10387999;28;20054;-74
2023/12/23 22:56:59;;;;;;;0.40;0.40;;;;;;;;;;10406911;28;20418;-74
2023/12/23 23:02:02;;;;;;;1.95;0.60;;;;;;;;;;10407113;28;20045;-74
2023/12/23 23:07:06;;;;;;;1.40;0.65;;;;;;;;;;10405594;28;20164;-74
2023/12/23 23:12:10;;;;;;;3.58;1.25;;;;;;;;;;10404513;28;20049;-74
2023/12/23 23:17:13;;;;;;;2.63;1.60;;;;;;;;;;10404871;28;20730;-74
2023/12/23 23:22:17;;;;;;;1.67;0.82;;;;;;;;;;10402146;28;20136;-74
2023/12/23 23:27:21;;;;;;;1.35;0.85;;;;;;;;;;10404220;28;20048;-74
2023/12/23 23:32:24;;;;;;;0.60;0.60;;;;;;;;;;10405357;28;20045;-74
2023/12/23 23:37:28;;;;;;;3.85;1.48;;;;;;;;;;10398446;28;20502;-74
2023/12/23 23:42:32;;;;;;;1.50;1.13;;;;;;;;;;10377971;28;20044;-74
2023/12/23 23:47:35;;;;;;;1.05;0.90;;;;;;;;;;10399709;28;20045;-74
2023/12/23 23:52:39;;;;;;;0.70;0.50;;;;;;;;;;10403044;28;20033;-74
2023/12/23 23:57:43;;;;;;;0.60;0.50;;;;;;;;;;10402355;28;20049;-74
